sensor_id;sensor_type;location;lat;lon;timestamp;P1;P2;P0
47079;PMS5003;33067;49.296;14.470;2023-09-07T00:00:26;16;15;
47079;PMS5003;33067;49.296;14.470;2023-09-07T00:02:51;16;16;
47079;PMS5003;33067;49.296;14.470;2023-09-07T00:05:17;19;19;
47079;PMS5003;33067;49.296;14.470;2023-09-07T00:07:42;18;17;
47079;PMS5003;33067;49.296;14.470;2023-09-07T00:10:08;20;19;
47079;PMS5003;33067;49.296;14.470;2023-09-07T00:12:33;35;34;
47079;PMS5003;33067;49.296;14.470;2023-09-07T00:15:02;20;19;
47079;PMS5003;33067;49.296;14.470;2023-09-07T00:17:25;29;26;
47079;PMS5003;33067;49.296;14.470;2023-09-07T00:19:50;19;19;
47079;PMS5003;33067;49.296;14.470;2023-09-07T00:22:16;50;50;
47079;PMS5003;33067;49.296;14.470;2023-09-07T00:24:41;40;40;
47079;PMS5003;33067;49.296;14.470;2023-09-07T00:27:08;16;15;
47079;PMS5003;33067;49.296;14.470;2023-09-07T00:29:32;19;19;
47079;PMS5003;33067;49.296;14.470;2023-09-07T00:31:58;19;18;
47079;PMS5003;33067;49.296;14.470;2023-09-07T00:34:24;31;31;
47079;PMS5003;33067;49.296;14.470;2023-09-07T00:36:49;18;18;
47079;PMS5003;33067;49.296;14.470;2023-09-07T00:39:14;24;24;
47079;PMS5003;33067;49.296;14.470;2023-09-07T00:41:40;16;15;
47079;PMS5003;33067;49.296;14.470;2023-09-07T00:44:06;20;20;
47079;PMS5003;33067;49.296;14.470;2023-09-07T00:46:32;25;22;
47079;PMS5003;33067;49.296;14.470;2023-09-07T00:48:57;32;30;
47079;PMS5003;33067;49.296;14.470;2023-09-07T00:51:22;44;43;
47079;PMS5003;33067;49.296;14.470;2023-09-07T00:53:48;40;37;
47079;PMS5003;33067;49.296;14.470;2023-09-07T00:56:13;21;21;
47079;PMS5003;33067;49.296;14.470;2023-09-07T00:58:39;20;20;
47079;PMS5003;33067;49.296;14.470;2023-09-07T01:01:05;28;26;
47079;PMS5003;33067;49.296;14.470;2023-09-07T01:03:30;24;24;
47079;PMS5003;33067;49.296;14.470;2023-09-07T01:05:58;45;45;
47079;PMS5003;33067;49.296;14.470;2023-09-07T01:08:23;24;24;
47079;PMS5003;33067;49.296;14.470;2023-09-07T01:10:48;34;34;
47079;PMS5003;33067;49.296;14.470;2023-09-07T01:13:13;36;35;
47079;PMS5003;33067;49.296;14.470;2023-09-07T01:15:38;26;24;
47079;PMS5003;33067;49.296;14.470;2023-09-07T01:18:03;51;51;
47079;PMS5003;33067;49.296;14.470;2023-09-07T01:20:28;27;25;
47079;PMS5003;33067;49.296;14.470;2023-09-07T01:22:54;29;29;
47079;PMS5003;33067;49.296;14.470;2023-09-07T01:25:20;54;54;
47079;PMS5003;33067;49.296;14.470;2023-09-07T01:27:45;27;25;
47079;PMS5003;33067;49.296;14.470;2023-09-07T01:30:10;48;48;
47079;PMS5003;33067;49.296;14.470;2023-09-07T01:32:35;28;27;
47079;PMS5003;33067;49.296;14.470;2023-09-07T01:35:01;29;29;
47079;PMS5003;33067;49.296;14.470;2023-09-07T01:37:27;29;29;
47079;PMS5003;33067;49.296;14.470;2023-09-07T01:39:53;49;49;
47079;PMS5003;33067;49.296;14.470;2023-09-07T01:42:18;30;28;
47079;PMS5003;33067;49.296;14.470;2023-09-07T01:44:43;60;57;
47079;PMS5003;33067;49.296;14.470;2023-09-07T01:47:09;27;27;
47079;PMS5003;33067;49.296;14.470;2023-09-07T01:49:35;48;48;
47079;PMS5003;33067;49.296;14.470;2023-09-07T01:52:01;50;50;
47079;PMS5003;33067;49.296;14.470;2023-09-07T01:54:25;39;37;
47079;PMS5003;33067;49.296;14.470;2023-09-07T01:56:50;63;62;
47079;PMS5003;33067;49.296;14.470;2023-09-07T01:59:16;29;29;
47079;PMS5003;33067;49.296;14.470;2023-09-07T02:01:41;30;27;
47079;PMS5003;33067;49.296;14.470;2023-09-07T02:04:07;61;61;
47079;PMS5003;33067;49.296;14.470;2023-09-07T02:06:32;28;28;
47079;PMS5003;33067;49.296;14.470;2023-09-07T02:08:58;29;28;
47079;PMS5003;33067;49.296;14.470;2023-09-07T02:13:01;43;43;
47079;PMS5003;33067;49.296;14.470;2023-09-07T02:15:26;33;33;
47079;PMS5003;33067;49.296;14.470;2023-09-07T02:17:53;33;33;
47079;PMS5003;33067;49.296;14.470;2023-09-07T02:20:17;37;34;
47079;PMS5003;33067;49.296;14.470;2023-09-07T02:22:43;43;43;
47079;PMS5003;33067;49.296;14.470;2023-09-07T02:25:08;28;26;
47079;PMS5003;33067;49.296;14.470;2023-09-07T02:27:34;32;32;
47079;PMS5003;33067;49.296;14.470;2023-09-07T02:30:00;40;39;
47079;PMS5003;33067;49.296;14.470;2023-09-07T02:32:24;35;33;
47079;PMS5003;33067;49.296;14.470;2023-09-07T02:34:50;37;37;
47079;PMS5003;33067;49.296;14.470;2023-09-07T02:37:15;32;31;
47079;PMS5003;33067;49.296;14.470;2023-09-07T02:39:40;26;26;
47079;PMS5003;33067;49.296;14.470;2023-09-07T02:42:06;29;29;
47079;PMS5003;33067;49.296;14.470;2023-09-07T02:44:32;28;28;
47079;PMS5003;33067;49.296;14.470;2023-09-07T02:46:57;32;32;
47079;PMS5003;33067;49.296;14.470;2023-09-07T02:49:22;43;42;
47079;PMS5003;33067;49.296;14.470;2023-09-07T02:51:48;30;30;
47079;PMS5003;33067;49.296;14.470;2023-09-07T02:54:13;38;37;
47079;PMS5003;33067;49.296;14.470;2023-09-07T02:56:38;40;40;
47079;PMS5003;33067;49.296;14.470;2023-09-07T02:59:03;40;40;
47079;PMS5003;33067;49.296;14.470;2023-09-07T03:01:28;41;40;
47079;PMS5003;33067;49.296;14.470;2023-09-07T03:03:54;38;33;
47079;PMS5003;33067;49.296;14.470;2023-09-07T03:06:19;29;29;
47079;PMS5003;33067;49.296;14.470;2023-09-07T03:08:44;34;34;
47079;PMS5003;33067;49.296;14.470;2023-09-07T03:11:10;42;40;
47079;PMS5003;33067;49.296;14.470;2023-09-07T03:13:35;34;34;
47079;PMS5003;33067;49.296;14.470;2023-09-07T03:16:02;15;14;
47079;PMS5003;33067;49.296;14.470;2023-09-07T03:18:26;16;16;
47079;PMS5003;33067;49.296;14.470;2023-09-07T03:20:53;16;16;
47079;PMS5003;33067;49.296;14.470;2023-09-07T03:25:42;18;16;
47079;PMS5003;33067;49.296;14.470;2023-09-07T03:28:07;12;12;
47079;PMS5003;33067;49.296;14.470;2023-09-07T03:30:32;16;15;
47079;PMS5003;33067;49.296;14.470;2023-09-07T03:32:57;16;16;
47079;PMS5003;33067;49.296;14.470;2023-09-07T03:35:22;13;13;
47079;PMS5003;33067;49.296;14.470;2023-09-07T03:37:48;17;17;
47079;PMS5003;33067;49.296;14.470;2023-09-07T03:40:13;24;21;
47079;PMS5003;33067;49.296;14.470;2023-09-07T03:42:39;18;16;
47079;PMS5003;33067;49.296;14.470;2023-09-07T03:45:04;15;15;
47079;PMS5003;33067;49.296;14.470;2023-09-07T03:47:30;30;29;
47079;PMS5003;33067;49.296;14.470;2023-09-07T03:49:56;43;43;
47079;PMS5003;33067;49.296;14.470;2023-09-07T03:52:21;54;52;
47079;PMS5003;33067;49.296;14.470;2023-09-07T03:54:53;42;42;
47079;PMS5003;33067;49.296;14.470;2023-09-07T03:57:12;50;49;
47079;PMS5003;33067;49.296;14.470;2023-09-07T03:59:38;95;93;
47079;PMS5003;33067;49.296;14.470;2023-09-07T04:02:03;69;61;
47079;PMS5003;33067;49.296;14.470;2023-09-07T04:04:29;54;50;
47079;PMS5003;33067;49.296;14.470;2023-09-07T04:06:54;114;102;
47079;PMS5003;33067;49.296;14.470;2023-09-07T04:09:20;69;61;
47079;PMS5003;33067;49.296;14.470;2023-09-07T04:11:45;78;70;
47079;PMS5003;33067;49.296;14.470;2023-09-07T04:16:36;96;85;
47079;PMS5003;33067;49.296;14.470;2023-09-07T04:19:01;63;56;
47079;PMS5003;33067;49.296;14.470;2023-09-07T04:21:27;71;66;
47079;PMS5003;33067;49.296;14.470;2023-09-07T04:23:52;51;45;
47079;PMS5003;33067;49.296;14.470;2023-09-07T04:26:18;48;43;
47079;PMS5003;33067;49.296;14.470;2023-09-07T04:28:43;38;33;
47079;PMS5003;33067;49.296;14.470;2023-09-07T04:31:09;27;25;
47079;PMS5003;33067;49.296;14.470;2023-09-07T04:33:35;22;21;
47079;PMS5003;33067;49.296;14.470;2023-09-07T04:38:25;24;24;
47079;PMS5003;33067;49.296;14.470;2023-09-07T04:40:50;23;22;
47079;PMS5003;33067;49.296;14.470;2023-09-07T04:43:16;22;22;
47079;PMS5003;33067;49.296;14.470;2023-09-07T04:45:46;18;17;
47079;PMS5003;33067;49.296;14.470;2023-09-07T04:48:07;19;19;
47079;PMS5003;33067;49.296;14.470;2023-09-07T04:50:33;17;17;
47079;PMS5003;33067;49.296;14.470;2023-09-07T04:52:59;15;15;
47079;PMS5003;33067;49.296;14.470;2023-09-07T04:55:24;19;19;
47079;PMS5003;33067;49.296;14.470;2023-09-07T04:57:50;22;22;
47079;PMS5003;33067;49.296;14.470;2023-09-07T05:00:15;17;17;
47079;PMS5003;33067;49.296;14.470;2023-09-07T05:02:41;15;15;
47079;PMS5003;33067;49.296;14.470;2023-09-07T05:05:07;15;15;
47079;PMS5003;33067;49.296;14.470;2023-09-07T05:07:31;16;16;
47079;PMS5003;33067;49.296;14.470;2023-09-07T05:09:57;16;16;
47079;PMS5003;33067;49.296;14.470;2023-09-07T05:12:23;15;15;
47079;PMS5003;33067;49.296;14.470;2023-09-07T05:14:48;17;17;
47079;PMS5003;33067;49.296;14.470;2023-09-07T05:17:13;16;15;
47079;PMS5003;33067;49.296;14.470;2023-09-07T05:19:39;21;20;
47079;PMS5003;33067;49.296;14.470;2023-09-07T05:22:11;18;18;
47079;PMS5003;33067;49.296;14.470;2023-09-07T05:24:30;14;14;
47079;PMS5003;33067;49.296;14.470;2023-09-07T05:26:56;14;14;
47079;PMS5003;33067;49.296;14.470;2023-09-07T05:29:21;18;15;
47079;PMS5003;33067;49.296;14.470;2023-09-07T05:31:46;14;13;
47079;PMS5003;33067;49.296;14.470;2023-09-07T05:36:37;17;16;
47079;PMS5003;33067;49.296;14.470;2023-09-07T05:39:03;17;16;
47079;PMS5003;33067;49.296;14.470;2023-09-07T05:41:28;15;15;
47079;PMS5003;33067;49.296;14.470;2023-09-07T05:43:54;14;14;
47079;PMS5003;33067;49.296;14.470;2023-09-07T05:46:19;16;13;
47079;PMS5003;33067;49.296;14.470;2023-09-07T05:48:44;19;18;
47079;PMS5003;33067;49.296;14.470;2023-09-07T05:51:10;15;15;
47079;PMS5003;33067;49.296;14.470;2023-09-07T05:53:35;17;16;
47079;PMS5003;33067;49.296;14.470;2023-09-07T05:56:00;13;13;
47079;PMS5003;33067;49.296;14.470;2023-09-07T05:58:25;19;18;
47079;PMS5003;33067;49.296;14.470;2023-09-07T06:00:50;21;18;
47079;PMS5003;33067;49.296;14.470;2023-09-07T06:03:16;24;23;
47079;PMS5003;33067;49.296;14.470;2023-09-07T06:05:41;25;22;
47079;PMS5003;33067;49.296;14.470;2023-09-07T06:08:06;21;19;
47079;PMS5003;33067;49.296;14.470;2023-09-07T06:10:32;24;21;
47079;PMS5003;33067;49.296;14.470;2023-09-07T06:12:58;16;16;
47079;PMS5003;33067;49.296;14.470;2023-09-07T06:15:23;17;17;
47079;PMS5003;33067;49.296;14.470;2023-09-07T06:17:48;16;16;
47079;PMS5003;33067;49.296;14.470;2023-09-07T06:20:13;18;17;
47079;PMS5003;33067;49.296;14.470;2023-09-07T06:22:38;19;18;
47079;PMS5003;33067;49.296;14.470;2023-09-07T06:25:04;17;17;
47079;PMS5003;33067;49.296;14.470;2023-09-07T06:27:29;19;19;
47079;PMS5003;33067;49.296;14.470;2023-09-07T06:29:55;16;15;
47079;PMS5003;33067;49.296;14.470;2023-09-07T06:32:19;18;18;
47079;PMS5003;33067;49.296;14.470;2023-09-07T06:34:45;17;17;
47079;PMS5003;33067;49.296;14.470;2023-09-07T06:37:11;16;16;
47079;PMS5003;33067;49.296;14.470;2023-09-07T06:39:36;19;17;
47079;PMS5003;33067;49.296;14.470;2023-09-07T06:42:02;19;19;
47079;PMS5003;33067;49.296;14.470;2023-09-07T06:44:27;17;16;
47079;PMS5003;33067;49.296;14.470;2023-09-07T06:46:52;17;16;
47079;PMS5003;33067;49.296;14.470;2023-09-07T06:49:18;17;17;
47079;PMS5003;33067;49.296;14.470;2023-09-07T06:51:44;16;13;
47079;PMS5003;33067;49.296;14.470;2023-09-07T06:54:10;18;15;
47079;PMS5003;33067;49.296;14.470;2023-09-07T06:56:35;19;19;
47079;PMS5003;33067;49.296;14.470;2023-09-07T06:59:01;18;17;
47079;PMS5003;33067;49.296;14.470;2023-09-07T07:01:27;16;15;
47079;PMS5003;33067;49.296;14.470;2023-09-07T07:03:52;15;15;
47079;PMS5003;33067;49.296;14.470;2023-09-07T07:06:18;13;13;
47079;PMS5003;33067;49.296;14.470;2023-09-07T07:08:43;14;13;
47079;PMS5003;33067;49.296;14.470;2023-09-07T07:11:09;12;12;
47079;PMS5003;33067;49.296;14.470;2023-09-07T07:13:35;16;15;
47079;PMS5003;33067;49.296;14.470;2023-09-07T07:16:01;16;15;
47079;PMS5003;33067;49.296;14.470;2023-09-07T07:18:26;15;14;
47079;PMS5003;33067;49.296;14.470;2023-09-07T07:20:51;14;14;
47079;PMS5003;33067;49.296;14.470;2023-09-07T07:23:17;13;13;
47079;PMS5003;33067;49.296;14.470;2023-09-07T07:25:43;16;16;
47079;PMS5003;33067;49.296;14.470;2023-09-07T07:28:08;15;15;
47079;PMS5003;33067;49.296;14.470;2023-09-07T07:30:34;15;15;
47079;PMS5003;33067;49.296;14.470;2023-09-07T07:33:00;19;18;
47079;PMS5003;33067;49.296;14.470;2023-09-07T07:35:26;14;12;
47079;PMS5003;33067;49.296;14.470;2023-09-07T07:37:51;20;20;
47079;PMS5003;33067;49.296;14.470;2023-09-07T07:40:17;16;14;
47079;PMS5003;33067;49.296;14.470;2023-09-07T07:42:43;15;15;
47079;PMS5003;33067;49.296;14.470;2023-09-07T07:45:09;13;13;
47079;PMS5003;33067;49.296;14.470;2023-09-07T07:47:34;16;16;
47079;PMS5003;33067;49.296;14.470;2023-09-07T07:50:00;12;12;
47079;PMS5003;33067;49.296;14.470;2023-09-07T07:52:25;14;14;
47079;PMS5003;33067;49.296;14.470;2023-09-07T07:54:51;18;15;
47079;PMS5003;33067;49.296;14.470;2023-09-07T07:57:17;14;14;
47079;PMS5003;33067;49.296;14.470;2023-09-07T07:59:42;13;13;
47079;PMS5003;33067;49.296;14.470;2023-09-07T08:02:08;16;16;
47079;PMS5003;33067;49.296;14.470;2023-09-07T08:04:34;24;24;
47079;PMS5003;33067;49.296;14.470;2023-09-07T08:07:00;24;23;
47079;PMS5003;33067;49.296;14.470;2023-09-07T08:09:25;15;15;
47079;PMS5003;33067;49.296;14.470;2023-09-07T08:11:50;14;14;
47079;PMS5003;33067;49.296;14.470;2023-09-07T08:14:16;13;13;
47079;PMS5003;33067;49.296;14.470;2023-09-07T08:16:41;13;13;
47079;PMS5003;33067;49.296;14.470;2023-09-07T08:19:07;15;14;
47079;PMS5003;33067;49.296;14.470;2023-09-07T08:21:33;14;14;
47079;PMS5003;33067;49.296;14.470;2023-09-07T08:23:58;13;13;
47079;PMS5003;33067;49.296;14.470;2023-09-07T08:26:24;17;14;
47079;PMS5003;33067;49.296;14.470;2023-09-07T08:28:49;15;15;
47079;PMS5003;33067;49.296;14.470;2023-09-07T08:31:15;10;10;
47079;PMS5003;33067;49.296;14.470;2023-09-07T08:33:41;12;10;
47079;PMS5003;33067;49.296;14.470;2023-09-07T08:36:06;14;14;
47079;PMS5003;33067;49.296;14.470;2023-09-07T08:38:32;10;10;
47079;PMS5003;33067;49.296;14.470;2023-09-07T08:41:00;12;11;
47079;PMS5003;33067;49.296;14.470;2023-09-07T08:43:23;14;13;
47079;PMS5003;33067;49.296;14.470;2023-09-07T08:45:51;18;15;
47079;PMS5003;33067;49.296;14.470;2023-09-07T08:48:15;12;12;
47079;PMS5003;33067;49.296;14.470;2023-09-07T08:50:40;13;13;
47079;PMS5003;33067;49.296;14.470;2023-09-07T08:53:06;11;11;
47079;PMS5003;33067;49.296;14.470;2023-09-07T08:55:32;13;11;
47079;PMS5003;33067;49.296;14.470;2023-09-07T08:57:58;14;13;
47079;PMS5003;33067;49.296;14.470;2023-09-07T09:00:25;13;13;
47079;PMS5003;33067;49.296;14.470;2023-09-07T09:02:49;12;12;
47079;PMS5003;33067;49.296;14.470;2023-09-07T09:05:16;16;13;
47079;PMS5003;33067;49.296;14.470;2023-09-07T09:07:41;12;12;
47079;PMS5003;33067;49.296;14.470;2023-09-07T09:10:07;11;11;
47079;PMS5003;33067;49.296;14.470;2023-09-07T09:12:32;13;13;
47079;PMS5003;33067;49.296;14.470;2023-09-07T09:14:59;16;16;
47079;PMS5003;33067;49.296;14.470;2023-09-07T09:17:24;11;11;
47079;PMS5003;33067;49.296;14.470;2023-09-07T09:19:49;13;13;
47079;PMS5003;33067;49.296;14.470;2023-09-07T09:22:15;11;11;
47079;PMS5003;33067;49.296;14.470;2023-09-07T09:24:40;12;12;
47079;PMS5003;33067;49.296;14.470;2023-09-07T09:27:06;13;13;
47079;PMS5003;33067;49.296;14.470;2023-09-07T09:29:32;13;12;
47079;PMS5003;33067;49.296;14.470;2023-09-07T09:31:59;11;11;
47079;PMS5003;33067;49.296;14.470;2023-09-07T09:34:24;14;14;
47079;PMS5003;33067;49.296;14.470;2023-09-07T09:36:49;14;14;
47079;PMS5003;33067;49.296;14.470;2023-09-07T09:39:22;12;12;
47079;PMS5003;33067;49.296;14.470;2023-09-07T09:41:41;12;12;
47079;PMS5003;33067;49.296;14.470;2023-09-07T09:44:07;13;13;
47079;PMS5003;33067;49.296;14.470;2023-09-07T09:46:32;14;14;
47079;PMS5003;33067;49.296;14.470;2023-09-07T09:48:58;12;12;
47079;PMS5003;33067;49.296;14.470;2023-09-07T09:51:24;11;11;
47079;PMS5003;33067;49.296;14.470;2023-09-07T09:53:49;16;16;
47079;PMS5003;33067;49.296;14.470;2023-09-07T09:56:19;11;10;
47079;PMS5003;33067;49.296;14.470;2023-09-07T09:58:40;13;13;
47079;PMS5003;33067;49.296;14.470;2023-09-07T10:01:06;11;11;
47079;PMS5003;33067;49.296;14.470;2023-09-07T10:03:32;13;13;
47079;PMS5003;33067;49.296;14.470;2023-09-07T10:08:23;14;11;
47079;PMS5003;33067;49.296;14.470;2023-09-07T10:10:49;11;11;
47079;PMS5003;33067;49.296;14.470;2023-09-07T10:13:14;12;11;
47079;PMS5003;33067;49.296;14.470;2023-09-07T10:15:39;11;11;
47079;PMS5003;33067;49.296;14.470;2023-09-07T10:18:06;11;10;
47079;PMS5003;33067;49.296;14.470;2023-09-07T10:20:35;11;11;
47079;PMS5003;33067;49.296;14.470;2023-09-07T10:25:22;11;10;
47079;PMS5003;33067;49.296;14.470;2023-09-07T10:27:48;12;12;
47079;PMS5003;33067;49.296;14.470;2023-09-07T10:30:14;12;12;
47079;PMS5003;33067;49.296;14.470;2023-09-07T10:32:39;12;12;
47079;PMS5003;33067;49.296;14.470;2023-09-07T10:37:31;13;11;
47079;PMS5003;33067;49.296;14.470;2023-09-07T10:39:56;11;10;
47079;PMS5003;33067;49.296;14.470;2023-09-07T10:44:48;12;10;
47079;PMS5003;33067;49.296;14.470;2023-09-07T10:47:13;10;10;
47079;PMS5003;33067;49.296;14.470;2023-09-07T10:49:39;13;12;
47079;PMS5003;33067;49.296;14.470;2023-09-07T10:52:05;12;10;
47079;PMS5003;33067;49.296;14.470;2023-09-07T10:54:30;14;14;
47079;PMS5003;33067;49.296;14.470;2023-09-07T10:56:56;9;9;
47079;PMS5003;33067;49.296;14.470;2023-09-07T10:59:21;11;11;
47079;PMS5003;33067;49.296;14.470;2023-09-07T11:01:47;13;13;
47079;PMS5003;33067;49.296;14.470;2023-09-07T11:04:13;11;11;
47079;PMS5003;33067;49.296;14.470;2023-09-07T11:06:39;14;14;
47079;PMS5003;33067;49.296;14.470;2023-09-07T11:09:04;16;16;
47079;PMS5003;33067;49.296;14.470;2023-09-07T11:11:31;15;15;
47079;PMS5003;33067;49.296;14.470;2023-09-07T11:13:57;14;14;
47079;PMS5003;33067;49.296;14.470;2023-09-07T11:16:21;13;13;
47079;PMS5003;33067;49.296;14.470;2023-09-07T11:18:47;18;16;
47079;PMS5003;33067;49.296;14.470;2023-09-07T11:21:13;15;15;
47079;PMS5003;33067;49.296;14.470;2023-09-07T11:26:04;15;15;
47079;PMS5003;33067;49.296;14.470;2023-09-07T11:28:32;13;13;
47079;PMS5003;33067;49.296;14.470;2023-09-07T11:30:55;12;12;
47079;PMS5003;33067;49.296;14.470;2023-09-07T11:33:21;12;12;
47079;PMS5003;33067;49.296;14.470;2023-09-07T11:35:47;13;12;
47079;PMS5003;33067;49.296;14.470;2023-09-07T11:38:13;13;13;
47079;PMS5003;33067;49.296;14.470;2023-09-07T11:40:38;17;13;
47079;PMS5003;33067;49.296;14.470;2023-09-07T11:43:03;21;19;
47079;PMS5003;33067;49.296;14.470;2023-09-07T11:45:32;20;20;
47079;PMS5003;33067;49.296;14.470;2023-09-07T11:50:22;19;19;
47079;PMS5003;33067;49.296;14.470;2023-09-07T11:52:46;18;16;
47079;PMS5003;33067;49.296;14.470;2023-09-07T11:55:14;13;12;
47079;PMS5003;33067;49.296;14.470;2023-09-07T11:57:38;10;10;
47079;PMS5003;33067;49.296;14.470;2023-09-07T12:00:04;11;11;
47079;PMS5003;33067;49.296;14.470;2023-09-07T12:02:29;13;12;
47079;PMS5003;33067;49.296;14.470;2023-09-07T12:04:55;12;12;
47079;PMS5003;33067;49.296;14.470;2023-09-07T12:07:30;15;14;
47079;PMS5003;33067;49.296;14.470;2023-09-07T12:09:46;17;17;
47079;PMS5003;33067;49.296;14.470;2023-09-07T12:12:12;20;20;
47079;PMS5003;33067;49.296;14.470;2023-09-07T12:14:37;17;16;
47079;PMS5003;33067;49.296;14.470;2023-09-07T12:17:03;17;16;
47079;PMS5003;33067;49.296;14.470;2023-09-07T12:19:29;15;15;
47079;PMS5003;33067;49.296;14.470;2023-09-07T12:21:55;19;19;
47079;PMS5003;33067;49.296;14.470;2023-09-07T12:24:20;11;11;
47079;PMS5003;33067;49.296;14.470;2023-09-07T12:26:46;11;11;
47079;PMS5003;33067;49.296;14.470;2023-09-07T12:29:13;9;9;
47079;PMS5003;33067;49.296;14.470;2023-09-07T12:34:03;8;8;
47079;PMS5003;33067;49.296;14.470;2023-09-07T12:38:54;11;10;
47079;PMS5003;33067;49.296;14.470;2023-09-07T12:43:45;9;8;
47079;PMS5003;33067;49.296;14.470;2023-09-07T12:46:19;11;11;
47079;PMS5003;33067;49.296;14.470;2023-09-07T12:48:36;10;10;
47079;PMS5003;33067;49.296;14.470;2023-09-07T12:51:02;9;9;
47079;PMS5003;33067;49.296;14.470;2023-09-07T12:55:53;11;11;
47079;PMS5003;33067;49.296;14.470;2023-09-07T12:58:19;10;10;
47079;PMS5003;33067;49.296;14.470;2023-09-07T13:00:44;10;10;
47079;PMS5003;33067;49.296;14.470;2023-09-07T13:05:36;10;10;
47079;PMS5003;33067;49.296;14.470;2023-09-07T13:08:03;8;8;
47079;PMS5003;33067;49.296;14.470;2023-09-07T13:10:27;13;12;
47079;PMS5003;33067;49.296;14.470;2023-09-07T13:12:53;11;11;
47079;PMS5003;33067;49.296;14.470;2023-09-07T13:15:19;9;9;
47079;PMS5003;33067;49.296;14.470;2023-09-07T13:17:44;11;11;
47079;PMS5003;33067;49.296;14.470;2023-09-07T13:20:11;10;10;
47079;PMS5003;33067;49.296;14.470;2023-09-07T13:22:36;12;12;
47079;PMS5003;33067;49.296;14.470;2023-09-07T13:25:01;9;9;
47079;PMS5003;33067;49.296;14.470;2023-09-07T13:27:27;8;8;
47079;PMS5003;33067;49.296;14.470;2023-09-07T13:29:52;11;10;
47079;PMS5003;33067;49.296;14.470;2023-09-07T13:32:18;10;10;
47079;PMS5003;33067;49.296;14.470;2023-09-07T13:34:44;11;10;
47079;PMS5003;33067;49.296;14.470;2023-09-07T13:37:09;10;10;
47079;PMS5003;33067;49.296;14.470;2023-09-07T13:39:35;9;9;
47079;PMS5003;33067;49.296;14.470;2023-09-07T13:42:00;12;12;
47079;PMS5003;33067;49.296;14.470;2023-09-07T13:44:26;10;10;
47079;PMS5003;33067;49.296;14.470;2023-09-07T13:46:52;10;10;
47079;PMS5003;33067;49.296;14.470;2023-09-07T13:49:17;10;10;
47079;PMS5003;33067;49.296;14.470;2023-09-07T13:51:44;7;7;
47079;PMS5003;33067;49.296;14.470;2023-09-07T13:54:09;12;10;
47079;PMS5003;33067;49.296;14.470;2023-09-07T13:56:34;11;11;
47079;PMS5003;33067;49.296;14.470;2023-09-07T13:59:00;10;10;
47079;PMS5003;33067;49.296;14.470;2023-09-07T14:01:27;12;12;
47079;PMS5003;33067;49.296;14.470;2023-09-07T14:03:52;12;12;
47079;PMS5003;33067;49.296;14.470;2023-09-07T14:06:22;8;8;
47079;PMS5003;33067;49.296;14.470;2023-09-07T14:08:43;10;10;
47079;PMS5003;33067;49.296;14.470;2023-09-07T14:11:08;12;10;
47079;PMS5003;33067;49.296;14.470;2023-09-07T14:13:34;10;10;
47079;PMS5003;33067;49.296;14.470;2023-09-07T14:15:59;11;11;
47079;PMS5003;33067;49.296;14.470;2023-09-07T14:18:25;11;9;
47079;PMS5003;33067;49.296;14.470;2023-09-07T14:20:50;10;10;
47079;PMS5003;33067;49.296;14.470;2023-09-07T14:23:16;11;9;
47079;PMS5003;33067;49.296;14.470;2023-09-07T14:25:42;10;9;
47079;PMS5003;33067;49.296;14.470;2023-09-07T14:28:08;11;11;
47079;PMS5003;33067;49.296;14.470;2023-09-07T14:30:33;11;11;
47079;PMS5003;33067;49.296;14.470;2023-09-07T14:32:59;12;11;
47079;PMS5003;33067;49.296;14.470;2023-09-07T14:35:24;9;9;
47079;PMS5003;33067;49.296;14.470;2023-09-07T14:37:51;12;12;
47079;PMS5003;33067;49.296;14.470;2023-09-07T14:40:15;11;11;
47079;PMS5003;33067;49.296;14.470;2023-09-07T14:42:41;11;10;
47079;PMS5003;33067;49.296;14.470;2023-09-07T14:45:08;8;8;
47079;PMS5003;33067;49.296;14.470;2023-09-07T14:47:33;8;8;
47079;PMS5003;33067;49.296;14.470;2023-09-07T14:50:03;7;7;
47079;PMS5003;33067;49.296;14.470;2023-09-07T14:52:24;11;9;
47079;PMS5003;33067;49.296;14.470;2023-09-07T14:54:50;10;10;
47079;PMS5003;33067;49.296;14.470;2023-09-07T14:57:15;13;9;
47079;PMS5003;33067;49.296;14.470;2023-09-07T14:59:41;11;11;
47079;PMS5003;33067;49.296;14.470;2023-09-07T15:02:07;10;10;
47079;PMS5003;33067;49.296;14.470;2023-09-07T15:04:33;9;9;
47079;PMS5003;33067;49.296;14.470;2023-09-07T15:06:58;8;8;
47079;PMS5003;33067;49.296;14.470;2023-09-07T15:09:24;9;9;
47079;PMS5003;33067;49.296;14.470;2023-09-07T15:11:50;10;10;
47079;PMS5003;33067;49.296;14.470;2023-09-07T15:14:15;11;11;
47079;PMS5003;33067;49.296;14.470;2023-09-07T15:16:41;9;9;
47079;PMS5003;33067;49.296;14.470;2023-09-07T15:19:07;10;9;
47079;PMS5003;33067;49.296;14.470;2023-09-07T15:21:32;11;11;
47079;PMS5003;33067;49.296;14.470;2023-09-07T15:23:58;11;10;
47079;PMS5003;33067;49.296;14.470;2023-09-07T15:26:24;9;9;
47079;PMS5003;33067;49.296;14.470;2023-09-07T15:28:49;10;10;
47079;PMS5003;33067;49.296;14.470;2023-09-07T15:31:15;9;9;
47079;PMS5003;33067;49.296;14.470;2023-09-07T15:33:41;10;10;
47079;PMS5003;33067;49.296;14.470;2023-09-07T15:36:07;9;9;
47079;PMS5003;33067;49.296;14.470;2023-09-07T15:38:32;9;9;
47079;PMS5003;33067;49.296;14.470;2023-09-07T15:40:58;11;11;
47079;PMS5003;33067;49.296;14.470;2023-09-07T15:43:24;9;9;
47079;PMS5003;33067;49.296;14.470;2023-09-07T15:45:49;17;16;
47079;PMS5003;33067;49.296;14.470;2023-09-07T15:48:15;9;9;
47079;PMS5003;33067;49.296;14.470;2023-09-07T15:50:41;10;10;
47079;PMS5003;33067;49.296;14.470;2023-09-07T15:53:06;10;9;
47079;PMS5003;33067;49.296;14.470;2023-09-07T15:55:33;10;9;
47079;PMS5003;33067;49.296;14.470;2023-09-07T15:57:57;10;10;
47079;PMS5003;33067;49.296;14.470;2023-09-07T16:00:23;8;8;
47079;PMS5003;33067;49.296;14.470;2023-09-07T16:02:49;8;8;
47079;PMS5003;33067;49.296;14.470;2023-09-07T16:05:14;8;8;
47079;PMS5003;33067;49.296;14.470;2023-09-07T16:07:40;12;12;
47079;PMS5003;33067;49.296;14.470;2023-09-07T16:10:06;9;9;
47079;PMS5003;33067;49.296;14.470;2023-09-07T16:12:31;10;8;
47079;PMS5003;33067;49.296;14.470;2023-09-07T16:14:57;11;11;
47079;PMS5003;33067;49.296;14.470;2023-09-07T16:17:23;10;10;
47079;PMS5003;33067;49.296;14.470;2023-09-07T16:19:49;8;8;
47079;PMS5003;33067;49.296;14.470;2023-09-07T16:22:15;8;8;
47079;PMS5003;33067;49.296;14.470;2023-09-07T16:24:40;9;7;
47079;PMS5003;33067;49.296;14.470;2023-09-07T16:27:06;9;9;
47079;PMS5003;33067;49.296;14.470;2023-09-07T16:29:31;10;10;